createdAt,value
2017-08-01T00:12:03.000Z,54
2017-08-01T00:28:52.000Z,54
2017-08-01T00:45:42.000Z,54.4
2017-08-01T01:02:31.000Z,54.4
2017-08-01T01:19:21.000Z,54.8
2017-08-01T01:36:11.000Z,54.8
2017-08-01T01:53:00.000Z,54.4
2017-08-01T02:09:50.000Z,54.4
2017-08-01T02:26:41.000Z,54.4
2017-08-01T02:43:31.000Z,54.4
2017-08-01T03:00:21.000Z,54.4
2017-08-01T03:17:11.000Z,54.4
2017-08-01T03:34:02.000Z,54.4
2017-08-01T03:50:51.000Z,54.4
2017-08-01T04:07:41.000Z,54.8
2017-08-01T04:24:31.000Z,56
2017-08-01T04:41:21.000Z,56.4
2017-08-01T04:58:11.000Z,56.4
2017-08-01T05:15:00.000Z,56.8
2017-08-01T05:25:06.000Z,56.4
2017-08-01T05:41:56.000Z,55.6
2017-08-01T05:58:48.000Z,55.2
2017-08-01T06:15:38.000Z,55.2
2017-08-01T06:32:29.000Z,55.2
2017-08-01T06:49:20.000Z,54.8
2017-08-01T07:06:11.000Z,54.4
2017-08-01T07:23:02.000Z,54
2017-08-01T07:39:53.000Z,54
2017-08-01T07:56:46.000Z,54
2017-08-01T08:13:37.000Z,54
2017-08-01T08:30:28.000Z,54.4
2017-08-01T08:47:20.000Z,55.2
2017-08-01T09:04:11.000Z,55.2
2017-08-01T09:21:03.000Z,55.2
2017-08-01T09:37:54.000Z,55.2
2017-08-01T09:54:47.000Z,56
2017-08-01T10:11:38.000Z,56.4
2017-08-01T10:28:29.000Z,56.8
2017-08-01T10:45:20.000Z,57.2
2017-08-01T11:02:12.000Z,56.4
2017-08-01T11:19:04.000Z,55.2
2017-08-01T11:35:57.000Z,54.4
2017-08-01T11:52:49.000Z,54.4
2017-08-01T12:09:41.000Z,54.8
2017-08-01T12:26:33.000Z,55.2
2017-08-01T12:43:25.000Z,55.6
2017-08-01T13:17:10.000Z,57.2
2017-08-01T13:34:01.000Z,57.6
2017-08-01T13:50:53.000Z,58.8
2017-08-01T14:07:45.000Z,58.8
2017-08-01T14:24:37.000Z,58.8
2017-08-01T14:41:29.000Z,58.8
2017-08-01T14:58:21.000Z,58.8
2017-08-01T15:15:13.000Z,59.2
2017-08-01T15:32:04.000Z,59.2
2017-08-01T15:48:57.000Z,60.4
2017-08-01T16:05:49.000Z,60
2017-08-01T16:22:40.000Z,59.2
2017-08-01T16:39:32.000Z,58.4
2017-08-01T16:56:24.000Z,60
2017-08-01T17:13:15.000Z,60.8
2017-08-01T17:30:06.000Z,62
2017-08-01T17:46:58.000Z,62.8
2017-08-01T18:03:50.000Z,63.2
2017-08-01T18:20:40.000Z,63.6
2017-08-01T18:37:31.000Z,64
2017-08-01T18:54:22.000Z,64
2017-08-01T19:11:14.000Z,64.4
2017-08-01T19:28:05.000Z,64.4
2017-08-01T19:44:55.000Z,64.4
2017-08-01T20:01:45.000Z,64.8
2017-08-01T20:18:37.000Z,64.8
2017-08-01T20:35:27.000Z,65.6
2017-08-01T20:52:17.000Z,65.6
2017-08-01T21:09:08.000Z,66
2017-08-01T21:25:59.000Z,66.4
2017-08-01T21:42:49.000Z,66.4
2017-08-01T21:59:40.000Z,66.4
2017-08-01T22:16:30.000Z,66.8
2017-08-01T22:33:20.000Z,66.8
2017-08-01T22:50:10.000Z,66.8
2017-08-01T23:07:00.000Z,66.8
2017-08-01T23:23:51.000Z,67.2
2017-08-01T23:40:40.000Z,67.2
2017-08-01T23:57:30.000Z,66.8
